New Orleans Nas Jrb/Alvin Callender Field/ Airport
KNBG : now visible

Airfield :











YOU CAN JOIN US ON...

 
LOGIN :

Register | Disclaimer

   EN    FR    IT 

 









Legend :    VFR   Marginal VFR   IFR   Intensive IFR   Very Intensive IFR
Visi :
Ceiling :
>= 8 km
>= 3000ft
5 to 8 km
1000 to 3000 ft
1500m to 5 km
500 to 1000 ft
800 to 1500m
200 to 500 ft
< 800m
< 200 ft
Symbols :   Thunderstorms  Fog  Heavy snow  Heavy precipitations  Wind > 20 kt






- Airport Elevation : 2 ft


KNBG - New Orleans Nas Jrb/Alvin Callender Field/

CURRENT METAR :
  • 290555Z AUTO 00000KT 10SM CLR 21/19 A3003 RMK AO2 RAB35E55 SLP168 P0000 60004 T02060194 10256 20206 403390206 51010 $

EXPIRED METARs :
  • 290455Z AUTO 00000KT 10SM CLR 22/20 A3002 RMK AO2 SLP164 T02170200 $
  • 290355Z 29004KT 10SM FEW110 BKN250 23/19 A3002 RMK AO2 SLP164 T02280194 $
  • 290255Z 03004KT 10SM SCT110 OVC250 22/20 A3000 RMK AO2 SLP158 T2 SET 60004 T02170200 55030 $
  • 290155Z 20009KT 10SM BKN110 OVC200 23/20 A2999 RMK AO2 RAE08B40E52 SLP156 T1 SET P0000 T02280200 $

TAF TAF KNBG
Valid from the 28 at 23:00 until the 29 at 23:00 UTC


2823/2923 14006KT 9999 VCSH SCT020CB SCT040 BKN060 OVC250 QNH3000INS
TEMPO 2823/2905 VRB30G40KT 1600 +TSRA SCT008 BKN015CB BKN025
BECMG 2908/2910 17009KT 4800 BR BKN030 BKN040 OVC200 QNH2995INS
TEMPO 2909/2911 3200 BR SCT008 SCT020
BECMG 2911/2913 16008KT 9999 NSW SCT015 BKN070 BKN250 QNH2992INS
BECMG 2917/2919 14007KT 9999 FEW020 SCT030 BKN250 QNH2988INS AUTOMATED SENSOR METWATCH 2904 TIL 2911 TX31/2920Z TN26/2911Z FN00268
KZHU FIR / North America



MET'MAP, your aeronautical weather chart ! - Copyright ORBIFLY December 2007 - Disclaimer

ORBIFLY MET'MAP TEAM :

Programming & Development : Alexandra Zaïnal
Original concept : Baudouin d'Aumeries
Technical & hardware support : Manuel Goepfert
Assistance : Marc-Olivier Méhu




SOURCES & CREDITS :

   NOAA       Earth
Advisory